Flight Track Log - Related Links

Times and Time Zones

All times are in EDT time to prevent confusion due to time zone crossing. See the SWA1075 flight status page for this flight to view local times or setup timezone preferences in your user account.

Time Position Orientation Groundspeed Altitude Reporting Facility
EDT Latitude Longitude Course Direction KTS MPH feet Rate Location/Type
Tue 12:28:54 PM 30.0642 -97.6072 99° East 237 273 6,100  Level Houston Center
Tue 12:29:56 PM 30.0372 -97.5433 116° Southeast 288 331 8,300 2,226 Climbing Houston Center
Tue 12:30:58 PM 30.0903 -97.4644 52° Northeast 300 345 10,700 2,081 Climbing Houston Center
Tue 12:32:00 PM 30.1494 -97.3772 52° Northeast 333 383 12,600 2,081 Climbing Houston Center
Tue 12:33:00 PM 30.3333 -96.9278 90° East  Level FlightAware
Tue 12:33:02 PM 30.1703 -97.2492 79° East 365 420 15,000  Level Houston Center
Tue 12:34:00 PM 30.3312 -96.7854 99° East  Level FlightAware
Tue 12:34:04 PM 30.1564 -97.1322 98° East 365 420 17,800  Level Houston Center
Tue 12:35:06 PM 30.1433 -97.0108 97° East 376 433 19,300 1,694 Climbing Houston Center
Tue 12:36:08 PM 30.1289 -96.8825 97° East 395 455 21,300 1,742 Climbing Houston Center
Tue 12:37:10 PM 30.1136 -96.7517 98° East 407 468 22,900 1,500 Climbing Houston Center
Tue 12:38:12 PM 30.0981 -96.6183 98° East 426 490 24,400 1,452 Climbing Houston Center
Tue 12:39:14 PM 30.0819 -96.4797 98° East 433 498 25,900 1,597 Climbing Houston Center
Tue 12:40:16 PM 30.0625 -96.3081 97° East 447 514 27,700 1,500 Climbing Houston Center
Tue 12:41:18 PM 30.0450 -96.1664 98° East 446 513 29,000 1,122 Climbing Houston Center
Tue 12:42:19 PM 30.0278 -96.0197 98° East 457 526 30,000 829 Climbing Houston Center
Tue 12:43:21 PM 30.0100 -95.8753 98° East 472 543 30,700 968 Climbing Houston Center
Tue 12:44:23 PM 29.9914 -95.7217 98° East 481 554 32,000 1,113 Climbing Houston Center
Tue 12:45:25 PM 29.9728 -95.5689 98° East 482 555 33,000 1,104 Climbing Houston Center
Tue 12:46:28 PM 29.9497 -95.3819 98° East 487 560 34,300 968 Climbing Houston Center
Tue 12:47:29 PM 29.9317 -95.2253 98° East 489 563 35,000 341 Climbing Houston Center
Tue 12:48:31 PM 29.9106 -95.0647 99° East 498 573 35,000  Level Houston Center
Tue 12:49:33 PM 29.8903 -94.9044 98° East 500 575 35,000  Level Houston Center
Tue 12:50:35 PM 29.8689 -94.7458 99° East 499 574 35,000  Level Houston Center
Tue 12:51:37 PM 29.8478 -94.5878 99° East 499 574 35,000  Level Houston Center
Tue 12:52:39 PM 29.8269 -94.4297 99° East 498 573 35,000  Level Houston Center
Tue 12:53:41 PM 29.8053 -94.2739 99° East 495 570 35,000  Level Houston Center
Tue 12:54:43 PM 29.7789 -94.0792 99° East 499 574 35,000  Level Houston Center
Tue 12:55:45 PM 29.7569 -93.9233 99° East 497 572 35,000  Level Houston Center
Tue 12:56:47 PM 29.7292 -93.7692 102° East 496 571 35,000  Level Houston Center
Tue 12:57:49 PM 29.7006 -93.6147 102° East 497 572 35,000  Level Houston Center
Tue 12:58:50 PM 29.6714 -93.4633 102° East 491 565 35,000  Level Houston Center
Tue 12:59:53 PM 29.6436 -93.3092 102° East 494 568 35,000  Level Houston Center
Tue 01:00:54 PM 29.6094 -93.1239 102° East 497 572 35,000  Level Houston Center
Tue 01:01:56 PM 29.5808 -92.9700 102° East 495 570 35,000  Level Houston Center
Tue 01:02:58 PM 29.5517 -92.8169 102° East 494 568 35,000  Level Houston Center
Tue 01:04:00 PM 29.5228 -92.6636 102° East 493 567 35,000  Level Houston Center
Tue 01:05:02 PM 29.4936 -92.5136 103° East 486 559 35,000  Level Houston Center
Tue 01:06:04 PM 29.4647 -92.3600 102° East 493 567 35,000  Level Houston Center
Tue 01:07:05 PM 29.4286 -92.1792 103° East 488 562 35,000  Level Houston Center
Tue 01:08:07 PM 29.4000 -92.0275 102° East 488 562 35,000  Level Houston Center
Tue 01:09:09 PM 29.3697 -91.8767 103° East 487 560 35,000  Level Houston Center
Tue 01:10:11 PM 29.3408 -91.7258 102° East 487 560 35,000  Level Houston Center
Tue 01:11:13 PM 29.3069 -91.5544 103° East 489 563 35,000  Level Houston Center
Tue 01:12:15 PM 29.2769 -91.4036 103° East 488 562 35,000  Level Houston Center
Tue 01:13:16 PM 29.2461 -91.2531 103° East 489 563 35,000  Level Houston Center
Tue 01:14:18 PM 29.2156 -91.1019 103° East 489 563 35,000  Level Houston Center
Tue 01:15:20 PM 29.1847 -90.9522 103° East 487 560 35,000  Level Houston Center
Tue 01:16:22 PM 29.1536 -90.8022 103° East 488 562 35,000  Level Houston Center
Tue 01:17:23 PM 29.1158 -90.6208 103° East 489 563 35,000  Level Houston Center
Tue 01:18:25 PM 29.0844 -90.4694 103° East 492 566 35,000  Level Houston Center
Tue 01:19:27 PM 29.0528 -90.3197 104° East 490 564 35,000  Level Houston Center
Tue 01:20:28 PM 29.0208 -90.1686 104° East 490 564 35,000  Level Houston Center
Tue 01:21:30 PM 28.9900 -90.0161 103° East 494 568 35,000  Level Houston Center
Tue 01:22:32 PM 28.9569 -89.8664 104° East 491 565 35,000  Level Houston Center
Tue 01:23:34 PM 28.9183 -89.6842 104° East 493 567 35,000  Level Houston Center
Tue 01:24:35 PM 28.8850 -89.5347 104° East 490 564 35,000  Level Houston Center
Tue 01:25:37 PM 28.8525 -89.3844 104° East 490 564 35,000  Level Houston Center
Tue 01:26:39 PM 28.8206 -89.2278 103° East 494 568 35,000  Level Houston Center
Tue 01:27:41 PM 28.7869 -89.0767 104° East 497 572 35,000  Level Houston Center
Tue 01:28:43 PM 28.7536 -88.9244 104° East 497 572 35,000  Level Houston Center
Tue 01:29:44 PM 28.7203 -88.7725 104° East 496 571 35,000  Level Houston Center
Tue 01:30:46 PM 28.6797 -88.5903 104° East 496 571 35,000  Level Houston Center
Tue 01:31:48 PM 28.6453 -88.4381 104° East 497 572 35,000  Level Houston Center
Tue 01:32:50 PM 28.6106 -88.2853 104° East 498 573 35,000  Level Houston Center
Tue 01:33:51 PM 28.5756 -88.1336 105° East 498 573 35,000  Level Houston Center
Tue 01:34:53 PM 28.5397 -87.9786 105° East 500 575 35,000  Level Houston Center
Tue 01:35:55 PM 28.5047 -87.8242 104° East 503 579 35,000  Level Houston Center
Tue 01:36:57 PM 28.4614 -87.6394 105° East 506 582 35,000  Level Houston Center
Tue 01:37:59 PM 28.4264 -87.4872 105° East 503 579 35,000  Level Houston Center
Tue 01:39:04 PM 28.3883 -87.3328 106° East 501 577 35,000  Level Jacksonville Center
Tue 01:40:03 PM 28.3558 -87.1828 104° East 501 577 35,000  Level Jacksonville Center
Tue 01:41:03 PM 28.3192 -87.0303 105° East 501 577 35,000 -50 Level Jacksonville Center
Tue 01:42:03 PM 28.2844 -86.8781 104° East 501 577 34,900  Descending Jacksonville Center
Tue 01:43:03 PM 28.2453 -86.7186 106° East 511 588 35,000 50 Climbing Jacksonville Center
Tue 01:44:03 PM 28.2042 -86.5617 107° East 506 582 35,000  Level Jacksonville Center
Tue 01:45:03 PM 28.1708 -86.4100 104° East 500 575 35,000  Level Jacksonville Center
Tue 01:46:03 PM 28.1331 -86.2581 106° East 500 575 35,000  Level Jacksonville Center
Tue 01:47:03 PM 28.0972 -86.1061 105° East 505 581 35,000  Level Jacksonville Center
Tue 01:48:04 PM 28.0572 -85.9497 106° East 500 575 35,000  Level Jacksonville Center
Tue 01:49:03 PM 28.0192 -85.7983 106° East 506 582 35,000  Level Jacksonville Center
Tue 01:51:33 PM 27.9181 -85.3872 105° East 513 590 35,000  Level Miami Center
Tue 01:52:33 PM 27.8792 -85.2319 106° East 513 590 35,000  Level Miami Center
Tue 01:53:33 PM 27.8592 -85.0733 98° East 500 575 35,000  Level Miami Center
Tue 01:54:33 PM 27.8361 -84.9286 100° East 509 586 35,000  Level Miami Center
Tue 01:55:33 PM 27.8219 -84.7731 96° East 509 586 35,000  Level Miami Center
Tue 01:56:33 PM 27.8283 -84.6139 87° East 503 579 35,000  Level Miami Center
Tue 01:57:33 PM 27.8219 -84.4611 93° East 503 579 35,000  Level Miami Center
Tue 01:58:33 PM 27.8239 -84.3042 89° East 498 573 35,000  Level Miami Center
Tue 01:59:33 PM 27.8300 -84.1453 87° East 498 573 35,000 -200 Level Miami Center
Tue 02:00:33 PM 27.8275 -83.9878 91° East 498 573 34,600 -1,150 Descending Miami Center
Tue 02:01:33 PM 27.8333 -83.8264 88° East 498 573 32,700 -2,550 Descending Miami Center
Tue 02:02:33 PM 27.8286 -83.6642 92° East 498 573 29,500 -2,950 Descending Miami Center
Tue 02:03:33 PM 27.8253 -83.5117 91° East 498 573 26,800 -2,600 Descending Miami Center
Tue 02:04:33 PM 27.8297 -83.3711 88° East 476 548 24,300 -1,900 Descending Miami Center
Tue 02:05:33 PM 27.8292 -83.2397 90° East 443 510 23,000 -650 Descending Miami Center
Tue 02:06:33 PM 27.8267 -83.1106 91° East 419 482 23,000  Level Miami Center
Tue 02:07:33 PM 27.8303 -82.9794 88° East 414 476 23,000  Level Miami Center
Tue 02:08:33 PM 27.8258 -82.8361 92° East 414 476 23,000  Level Miami Center
Tue 02:09:33 PM 27.8250 -82.7047 90° East 414 476 23,000  Level Miami Center
Tue 02:10:33 PM 27.8258 -82.5756 90° East 414 476 23,000 -250 Level Miami Center
Tue 02:11:33 PM 27.8497 -82.4500 78° East 407 468 22,500 -1,250 Descending Miami Center
Tue 02:12:33 PM 27.8833 -82.3344 72° East 394 453 20,500 -1,950 Descending Miami Center
Tue 02:13:33 PM 27.9186 -82.2258 70° East 380 437 18,600 -1,926 Descending Miami Center
Tue 02:15:15 PM 27.9833 -82.0500 67° East 355 409 15,300 -1,926 Descending Orlando TRACON
Tue 02:16:15 PM 28.0167 -81.9500 69° East 348 400 13,400 -1,140 Descending Orlando TRACON
Tue 02:17:16 PM 28.0667 -81.8500 60° Northeast 306 352 13,000 -694 Descending Orlando TRACON
Tue 02:18:16 PM 28.0833 -81.7667 77° East 302 348 12,000 -950 Descending Orlando TRACON
Tue 02:19:16 PM 28.1000 -81.6667 79° East 309 356 11,100 -939 Descending Orlando TRACON
Tue 02:20:11 PM 28.1167 -81.5833 77° East 298 343 10,200 -991 Descending Orlando TRACON
Tue 02:21:11 PM 28.1333 -81.5000 77° East 297 342 9,200 -1,450 Descending Orlando TRACON
Tue 02:22:11 PM 28.2000 -81.4500 33° Northeast 263 303 7,300 -1,250 Descending Orlando TRACON
Tue 02:23:11 PM 28.2500 -81.4000 41° Northeast 184 212 6,700 -1,250 Descending Orlando TRACON
Tue 02:24:11 PM 28.2833 -81.3667 41° Northeast 169 194 4,800 -2,050 Descending Orlando TRACON
Tue 02:25:11 PM 28.3167 -81.3333 41° Northeast 167 192 2,600 -1,884 Descending Orlando TRACON
Tue 02:26:12 PM 28.3667 -81.3167 16° North 162 186 1,000 -1,091 Descending Orlando TRACON
Tue 02:27:12 PM 28.4000 -81.3167 360° North 143 165 400 -600 Descending Orlando TRACON
Tue 02:29:00 PM 28.4294 -81.3090 North  Level Estimated

Login

Don't have an account? Register now (free) for customized features, flight alerts, and more!